sensor_id;sensor_type;location;lat;lon;timestamp;temperature;humidity
21167;DHT22;10741;52.272;9.580;2023-06-01T00:01:53;12.30;99.90
21167;DHT22;10741;52.272;9.580;2023-06-01T00:04:19;12.30;99.90
21167;DHT22;10741;52.272;9.580;2023-06-01T00:06:45;12.30;99.90
21167;DHT22;10741;52.272;9.580;2023-06-01T00:09:10;12.20;99.90
21167;DHT22;10741;52.272;9.580;2023-06-01T00:11:36;12.20;99.90
21167;DHT22;10741;52.272;9.580;2023-06-01T00:14:02;12.20;99.90
21167;DHT22;10741;52.272;9.580;2023-06-01T00:16:28;12.10;99.90
21167;DHT22;10741;52.272;9.580;2023-06-01T00:18:56;12.10;99.90
21167;DHT22;10741;52.272;9.580;2023-06-01T00:21:23;12.20;99.90
21167;DHT22;10741;52.272;9.580;2023-06-01T00:23:49;12.20;99.90
21167;DHT22;10741;52.272;9.580;2023-06-01T00:26:15;12.20;99.90
21167;DHT22;10741;52.272;9.580;2023-06-01T00:28:41;12.10;99.90
21167;DHT22;10741;52.272;9.580;2023-06-01T00:31:07;12.00;99.90
21167;DHT22;10741;52.272;9.580;2023-06-01T00:33:33;11.90;99.90
21167;DHT22;10741;52.272;9.580;2023-06-01T00:35:58;11.90;99.90
21167;DHT22;10741;52.272;9.580;2023-06-01T00:38:24;11.90;99.90
21167;DHT22;10741;52.272;9.580;2023-06-01T00:40:50;12.00;99.90
21167;DHT22;10741;52.272;9.580;2023-06-01T00:43:19;12.00;99.90
21167;DHT22;10741;52.272;9.580;2023-06-01T00:45:45;11.90;99.90
21167;DHT22;10741;52.272;9.580;2023-06-01T00:48:11;11.90;99.90
21167;DHT22;10741;52.272;9.580;2023-06-01T00:50:38;11.90;99.90
21167;DHT22;10741;52.272;9.580;2023-06-01T00:53:07;11.90;99.90
21167;DHT22;10741;52.272;9.580;2023-06-01T00:55:34;11.90;99.90
21167;DHT22;10741;52.272;9.580;2023-06-01T00:58:00;11.90;99.90
21167;DHT22;10741;52.272;9.580;2023-06-01T01:00:29;11.80;99.90
21167;DHT22;10741;52.272;9.580;2023-06-01T01:02:55;11.80;99.90
21167;DHT22;10741;52.272;9.580;2023-06-01T01:05:22;11.90;99.90
21167;DHT22;10741;52.272;9.580;2023-06-01T01:10:58;11.90;99.90
21167;DHT22;10741;52.272;9.580;2023-06-01T01:13:37;11.90;99.90
21167;DHT22;10741;52.272;9.580;2023-06-01T01:16:11;11.80;99.90
21167;DHT22;10741;52.272;9.580;2023-06-01T01:21:33;11.80;99.90
21167;DHT22;10741;52.272;9.580;2023-06-01T01:29:24;11.80;99.90
21167;DHT22;10741;52.272;9.580;2023-06-01T01:31:52;11.80;99.90
21167;DHT22;10741;52.272;9.580;2023-06-01T01:34:20;11.70;99.90
21167;DHT22;10741;52.272;9.580;2023-06-01T01:36:46;11.70;99.90
21167;DHT22;10741;52.272;9.580;2023-06-01T01:39:12;11.70;99.90
21167;DHT22;10741;52.272;9.580;2023-06-01T01:41:38;11.70;99.90
21167;DHT22;10741;52.272;9.580;2023-06-01T01:44:04;11.70;99.90
21167;DHT22;10741;52.272;9.580;2023-06-01T01:46:36;11.70;99.90
21167;DHT22;10741;52.272;9.580;2023-06-01T01:51:56;11.80;99.90
21167;DHT22;10741;52.272;9.580;2023-06-01T01:54:24;11.80;99.90
21167;DHT22;10741;52.272;9.580;2023-06-01T01:56:53;11.80;99.90
21167;DHT22;10741;52.272;9.580;2023-06-01T01:59:20;11.80;99.90
21167;DHT22;10741;52.272;9.580;2023-06-01T02:01:47;11.90;99.90
21167;DHT22;10741;52.272;9.580;2023-06-01T02:04:12;11.90;99.90
21167;DHT22;10741;52.272;9.580;2023-06-01T02:06:38;11.90;99.90
21167;DHT22;10741;52.272;9.580;2023-06-01T02:09:04;11.90;99.90
21167;DHT22;10741;52.272;9.580;2023-06-01T02:11:33;12.00;99.90
21167;DHT22;10741;52.272;9.580;2023-06-01T02:14:00;11.90;99.90
21167;DHT22;10741;52.272;9.580;2023-06-01T02:16:26;11.80;99.90
21167;DHT22;10741;52.272;9.580;2023-06-01T02:18:52;11.80;99.90
21167;DHT22;10741;52.272;9.580;2023-06-01T02:21:19;11.80;99.90
21167;DHT22;10741;52.272;9.580;2023-06-01T02:23:45;11.80;99.90
21167;DHT22;10741;52.272;9.580;2023-06-01T02:26:10;11.80;99.90
21167;DHT22;10741;52.272;9.580;2023-06-01T02:28:39;11.80;99.90
21167;DHT22;10741;52.272;9.580;2023-06-01T02:31:06;11.80;99.90
21167;DHT22;10741;52.272;9.580;2023-06-01T02:33:32;11.80;99.90
21167;DHT22;10741;52.272;9.580;2023-06-01T02:35:59;11.80;99.90
21167;DHT22;10741;52.272;9.580;2023-06-01T02:38:25;11.80;99.90
21167;DHT22;10741;52.272;9.580;2023-06-01T02:40:51;11.90;99.90
21167;DHT22;10741;52.272;9.580;2023-06-01T02:43:17;11.80;99.90
21167;DHT22;10741;52.272;9.580;2023-06-01T02:45:43;11.80;99.90
21167;DHT22;10741;52.272;9.580;2023-06-01T02:48:09;11.80;99.90
21167;DHT22;10741;52.272;9.580;2023-06-01T02:50:35;11.80;99.90
21167;DHT22;10741;52.272;9.580;2023-06-01T02:53:01;11.70;99.90
21167;DHT22;10741;52.272;9.580;2023-06-01T02:55:27;11.70;99.90
21167;DHT22;10741;52.272;9.580;2023-06-01T02:57:53;11.70;99.90
21167;DHT22;10741;52.272;9.580;2023-06-01T03:00:18;11.70;99.90
21167;DHT22;10741;52.272;9.580;2023-06-01T03:02:45;11.70;99.90
21167;DHT22;10741;52.272;9.580;2023-06-01T03:05:12;11.70;99.90
21167;DHT22;10741;52.272;9.580;2023-06-01T03:07:43;11.70;99.90
21167;DHT22;10741;52.272;9.580;2023-06-01T03:10:09;11.70;99.90
21167;DHT22;10741;52.272;9.580;2023-06-01T03:12:36;11.70;99.90
21167;DHT22;10741;52.272;9.580;2023-06-01T03:15:02;11.70;99.90
21167;DHT22;10741;52.272;9.580;2023-06-01T03:17:28;11.60;99.90
21167;DHT22;10741;52.272;9.580;2023-06-01T03:19:54;11.70;99.90
21167;DHT22;10741;52.272;9.580;2023-06-01T03:22:20;11.70;99.90
21167;DHT22;10741;52.272;9.580;2023-06-01T03:24:46;11.70;99.90
21167;DHT22;10741;52.272;9.580;2023-06-01T03:27:18;11.70;99.90
21167;DHT22;10741;52.272;9.580;2023-06-01T03:29:45;11.70;99.90
21167;DHT22;10741;52.272;9.580;2023-06-01T03:32:11;11.70;99.90
21167;DHT22;10741;52.272;9.580;2023-06-01T03:34:37;11.70;99.90
21167;DHT22;10741;52.272;9.580;2023-06-01T03:37:04;11.70;99.90
21167;DHT22;10741;52.272;9.580;2023-06-01T03:39:30;11.80;99.90
21167;DHT22;10741;52.272;9.580;2023-06-01T03:42:00;11.80;99.90
21167;DHT22;10741;52.272;9.580;2023-06-01T03:44:26;11.80;99.90
21167;DHT22;10741;52.272;9.580;2023-06-01T03:46:52;11.70;99.90
21167;DHT22;10741;52.272;9.580;2023-06-01T03:49:18;11.70;99.90
21167;DHT22;10741;52.272;9.580;2023-06-01T03:51:44;11.70;99.90
21167;DHT22;10741;52.272;9.580;2023-06-01T03:54:10;11.80;99.90
21167;DHT22;10741;52.272;9.580;2023-06-01T03:56:36;11.80;99.90
21167;DHT22;10741;52.272;9.580;2023-06-01T03:59:02;11.70;99.90
21167;DHT22;10741;52.272;9.580;2023-06-01T04:01:28;11.80;99.90
21167;DHT22;10741;52.272;9.580;2023-06-01T04:03:55;11.70;99.90
21167;DHT22;10741;52.272;9.580;2023-06-01T04:06:22;11.80;99.90
21167;DHT22;10741;52.272;9.580;2023-06-01T04:08:50;11.80;99.90
21167;DHT22;10741;52.272;9.580;2023-06-01T04:11:21;11.80;99.90
21167;DHT22;10741;52.272;9.580;2023-06-01T04:13:47;11.80;99.90
21167;DHT22;10741;52.272;9.580;2023-06-01T04:16:14;11.80;99.90
21167;DHT22;10741;52.272;9.580;2023-06-01T04:18:40;11.70;99.90
21167;DHT22;10741;52.272;9.580;2023-06-01T04:21:07;11.80;99.90
21167;DHT22;10741;52.272;9.580;2023-06-01T04:23:35;11.80;99.90
21167;DHT22;10741;52.272;9.580;2023-06-01T04:26:02;11.80;99.90
21167;DHT22;10741;52.272;9.580;2023-06-01T04:28:31;11.80;99.90
21167;DHT22;10741;52.272;9.580;2023-06-01T04:30:58;11.70;99.90
21167;DHT22;10741;52.272;9.580;2023-06-01T04:33:24;11.70;99.90
21167;DHT22;10741;52.272;9.580;2023-06-01T04:35:51;11.70;99.90
21167;DHT22;10741;52.272;9.580;2023-06-01T04:38:20;11.70;99.90
21167;DHT22;10741;52.272;9.580;2023-06-01T04:40:47;11.70;99.90
21167;DHT22;10741;52.272;9.580;2023-06-01T04:43:13;11.70;99.90
21167;DHT22;10741;52.272;9.580;2023-06-01T04:45:45;11.70;99.90
21167;DHT22;10741;52.272;9.580;2023-06-01T04:48:11;11.70;99.90
21167;DHT22;10741;52.272;9.580;2023-06-01T04:50:37;11.70;99.90
21167;DHT22;10741;52.272;9.580;2023-06-01T04:53:03;11.70;99.90
21167;DHT22;10741;52.272;9.580;2023-06-01T04:55:29;11.70;99.90
21167;DHT22;10741;52.272;9.580;2023-06-01T04:57:56;11.80;99.90
21167;DHT22;10741;52.272;9.580;2023-06-01T05:00:22;11.70;99.90
21167;DHT22;10741;52.272;9.580;2023-06-01T05:02:48;11.70;99.90
21167;DHT22;10741;52.272;9.580;2023-06-01T05:05:15;11.80;99.90
21167;DHT22;10741;52.272;9.580;2023-06-01T05:07:41;11.80;99.90
21167;DHT22;10741;52.272;9.580;2023-06-01T05:10:09;11.80;99.90
21167;DHT22;10741;52.272;9.580;2023-06-01T05:12:36;11.70;99.90
21167;DHT22;10741;52.272;9.580;2023-06-01T05:15:06;11.70;99.90
21167;DHT22;10741;52.272;9.580;2023-06-01T05:17:33;11.80;99.90
21167;DHT22;10741;52.272;9.580;2023-06-01T05:19:59;11.80;99.90
21167;DHT22;10741;52.272;9.580;2023-06-01T05:22:25;11.90;99.90
21167;DHT22;10741;52.272;9.580;2023-06-01T05:24:51;11.90;99.90
21167;DHT22;10741;52.272;9.580;2023-06-01T05:27:17;11.90;99.90
21167;DHT22;10741;52.272;9.580;2023-06-01T05:29:43;11.90;99.90
21167;DHT22;10741;52.272;9.580;2023-06-01T05:32:09;11.90;99.90
21167;DHT22;10741;52.272;9.580;2023-06-01T05:34:35;12.00;99.90
21167;DHT22;10741;52.272;9.580;2023-06-01T05:37:02;11.90;99.90
21167;DHT22;10741;52.272;9.580;2023-06-01T05:39:28;11.90;99.90
21167;DHT22;10741;52.272;9.580;2023-06-01T05:41:57;11.90;99.90
21167;DHT22;10741;52.272;9.580;2023-06-01T05:44:23;12.00;99.90
21167;DHT22;10741;52.272;9.580;2023-06-01T05:46:49;12.10;99.90
21167;DHT22;10741;52.272;9.580;2023-06-01T05:49:16;12.10;99.90
21167;DHT22;10741;52.272;9.580;2023-06-01T05:51:42;12.10;99.90
21167;DHT22;10741;52.272;9.580;2023-06-01T05:54:09;12.10;99.90
21167;DHT22;10741;52.272;9.580;2023-06-01T05:56:35;12.20;99.90
21167;DHT22;10741;52.272;9.580;2023-06-01T05:59:03;12.10;99.90
21167;DHT22;10741;52.272;9.580;2023-06-01T06:01:29;12.10;99.90
21167;DHT22;10741;52.272;9.580;2023-06-01T06:03:55;12.20;99.90
21167;DHT22;10741;52.272;9.580;2023-06-01T06:06:21;12.10;99.90
21167;DHT22;10741;52.272;9.580;2023-06-01T06:08:48;12.10;99.90
21167;DHT22;10741;52.272;9.580;2023-06-01T06:11:14;12.10;99.90
21167;DHT22;10741;52.272;9.580;2023-06-01T06:13:39;12.10;99.90
21167;DHT22;10741;52.272;9.580;2023-06-01T06:16:05;12.20;99.90
21167;DHT22;10741;52.272;9.580;2023-06-01T06:18:31;12.30;99.90
21167;DHT22;10741;52.272;9.580;2023-06-01T06:20:57;12.20;99.90
21167;DHT22;10741;52.272;9.580;2023-06-01T06:23:23;12.20;99.90
21167;DHT22;10741;52.272;9.580;2023-06-01T06:25:49;12.20;99.90
21167;DHT22;10741;52.272;9.580;2023-06-01T06:28:15;12.40;99.90
21167;DHT22;10741;52.272;9.580;2023-06-01T06:30:41;12.40;99.90
21167;DHT22;10741;52.272;9.580;2023-06-01T06:33:07;12.40;99.90
21167;DHT22;10741;52.272;9.580;2023-06-01T06:35:33;12.50;99.90
21167;DHT22;10741;52.272;9.580;2023-06-01T06:37:59;12.50;99.90
21167;DHT22;10741;52.272;9.580;2023-06-01T06:40:24;12.50;99.90
21167;DHT22;10741;52.272;9.580;2023-06-01T06:42:50;12.50;99.90
21167;DHT22;10741;52.272;9.580;2023-06-01T06:45:16;12.50;99.90
21167;DHT22;10741;52.272;9.580;2023-06-01T06:47:42;12.50;99.90
21167;DHT22;10741;52.272;9.580;2023-06-01T06:50:11;12.60;99.90
21167;DHT22;10741;52.272;9.580;2023-06-01T06:52:37;12.70;99.90
21167;DHT22;10741;52.272;9.580;2023-06-01T06:55:03;12.60;99.90
21167;DHT22;10741;52.272;9.580;2023-06-01T06:57:28;12.60;99.90
21167;DHT22;10741;52.272;9.580;2023-06-01T06:59:54;12.60;99.90
21167;DHT22;10741;52.272;9.580;2023-06-01T07:02:21;12.60;99.90
21167;DHT22;10741;52.272;9.580;2023-06-01T07:04:47;12.80;99.90
21167;DHT22;10741;52.272;9.580;2023-06-01T07:07:14;12.80;99.90
21167;DHT22;10741;52.272;9.580;2023-06-01T07:09:40;12.70;99.90
21167;DHT22;10741;52.272;9.580;2023-06-01T07:12:06;12.70;99.90
21167;DHT22;10741;52.272;9.580;2023-06-01T07:14:42;12.70;99.90
21167;DHT22;10741;52.272;9.580;2023-06-01T07:17:14;12.80;99.90
21167;DHT22;10741;52.272;9.580;2023-06-01T07:19:40;12.70;99.90
21167;DHT22;10741;52.272;9.580;2023-06-01T07:22:06;12.70;99.90
21167;DHT22;10741;52.272;9.580;2023-06-01T07:24:32;12.80;99.90
21167;DHT22;10741;52.272;9.580;2023-06-01T07:26:58;12.90;99.90
21167;DHT22;10741;52.272;9.580;2023-06-01T07:29:24;12.80;99.90
21167;DHT22;10741;52.272;9.580;2023-06-01T07:31:50;12.90;99.90
21167;DHT22;10741;52.272;9.580;2023-06-01T07:34:17;12.90;99.90
21167;DHT22;10741;52.272;9.580;2023-06-01T07:36:46;13.00;99.90
21167;DHT22;10741;52.272;9.580;2023-06-01T07:39:13;12.90;99.90
21167;DHT22;10741;52.272;9.580;2023-06-01T07:41:38;13.00;99.90
21167;DHT22;10741;52.272;9.580;2023-06-01T07:44:05;13.00;99.90
21167;DHT22;10741;52.272;9.580;2023-06-01T07:46:31;13.00;99.90
21167;DHT22;10741;52.272;9.580;2023-06-01T07:48:57;13.00;99.90
21167;DHT22;10741;52.272;9.580;2023-06-01T07:51:24;13.00;99.90
21167;DHT22;10741;52.272;9.580;2023-06-01T07:53:50;13.00;99.90
21167;DHT22;10741;52.272;9.580;2023-06-01T07:56:16;13.00;99.90
21167;DHT22;10741;52.272;9.580;2023-06-01T07:58:41;13.10;99.90
21167;DHT22;10741;52.272;9.580;2023-06-01T08:01:09;13.10;99.90
21167;DHT22;10741;52.272;9.580;2023-06-01T08:03:36;13.00;99.90
21167;DHT22;10741;52.272;9.580;2023-06-01T08:06:02;13.00;99.90
21167;DHT22;10741;52.272;9.580;2023-06-01T08:08:30;13.00;99.90
21167;DHT22;10741;52.272;9.580;2023-06-01T08:10:56;13.00;99.90
21167;DHT22;10741;52.272;9.580;2023-06-01T08:13:22;13.00;99.90
21167;DHT22;10741;52.272;9.580;2023-06-01T08:15:51;13.10;99.90
21167;DHT22;10741;52.272;9.580;2023-06-01T08:18:18;13.10;99.90
21167;DHT22;10741;52.272;9.580;2023-06-01T08:20:45;13.20;99.90
21167;DHT22;10741;52.272;9.580;2023-06-01T08:23:11;13.10;99.90
21167;DHT22;10741;52.272;9.580;2023-06-01T08:25:37;13.10;99.90
21167;DHT22;10741;52.272;9.580;2023-06-01T08:28:03;13.10;99.90
21167;DHT22;10741;52.272;9.580;2023-06-01T08:30:28;13.10;99.90
21167;DHT22;10741;52.272;9.580;2023-06-01T08:32:54;13.20;99.90
21167;DHT22;10741;52.272;9.580;2023-06-01T08:35:20;13.10;99.90
21167;DHT22;10741;52.272;9.580;2023-06-01T08:37:49;13.20;99.90
21167;DHT22;10741;52.272;9.580;2023-06-01T08:40:15;13.10;99.90
21167;DHT22;10741;52.272;9.580;2023-06-01T08:42:54;13.20;99.90
21167;DHT22;10741;52.272;9.580;2023-06-01T08:45:23;13.20;99.90
21167;DHT22;10741;52.272;9.580;2023-06-01T08:47:53;13.30;99.90
21167;DHT22;10741;52.272;9.580;2023-06-01T08:50:20;13.40;99.90
21167;DHT22;10741;52.272;9.580;2023-06-01T08:52:47;13.40;99.90
21167;DHT22;10741;52.272;9.580;2023-06-01T08:55:14;13.50;99.90
21167;DHT22;10741;52.272;9.580;2023-06-01T08:57:41;13.50;99.90
21167;DHT22;10741;52.272;9.580;2023-06-01T09:00:12;13.50;99.90
21167;DHT22;10741;52.272;9.580;2023-06-01T09:02:38;13.50;99.90
21167;DHT22;10741;52.272;9.580;2023-06-01T09:05:05;13.50;99.90
21167;DHT22;10741;52.272;9.580;2023-06-01T09:07:31;13.60;99.90
21167;DHT22;10741;52.272;9.580;2023-06-01T09:09:58;13.60;99.90
21167;DHT22;10741;52.272;9.580;2023-06-01T09:12:28;13.60;99.90
21167;DHT22;10741;52.272;9.580;2023-06-01T09:15:08;13.70;99.90
21167;DHT22;10741;52.272;9.580;2023-06-01T09:17:34;13.70;99.90
21167;DHT22;10741;52.272;9.580;2023-06-01T09:20:00;13.60;99.90
21167;DHT22;10741;52.272;9.580;2023-06-01T09:22:42;13.60;99.90
21167;DHT22;10741;52.272;9.580;2023-06-01T09:25:09;13.70;99.90
21167;DHT22;10741;52.272;9.580;2023-06-01T09:27:45;13.60;99.90
21167;DHT22;10741;52.272;9.580;2023-06-01T09:30:12;13.70;99.90
21167;DHT22;10741;52.272;9.580;2023-06-01T09:32:38;13.70;99.90
21167;DHT22;10741;52.272;9.580;2023-06-01T09:35:04;13.80;99.90
21167;DHT22;10741;52.272;9.580;2023-06-01T09:37:33;14.00;99.90
21167;DHT22;10741;52.272;9.580;2023-06-01T09:39:58;14.10;99.90
21167;DHT22;10741;52.272;9.580;2023-06-01T09:42:32;14.10;99.90
21167;DHT22;10741;52.272;9.580;2023-06-01T09:45:14;14.00;99.90
21167;DHT22;10741;52.272;9.580;2023-06-01T09:47:41;13.90;99.90
21167;DHT22;10741;52.272;9.580;2023-06-01T09:50:07;14.10;99.90
21167;DHT22;10741;52.272;9.580;2023-06-01T09:52:37;14.10;99.90
21167;DHT22;10741;52.272;9.580;2023-06-01T09:55:08;14.10;99.90
21167;DHT22;10741;52.272;9.580;2023-06-01T09:57:34;14.20;99.90
21167;DHT22;10741;52.272;9.580;2023-06-01T10:00:02;14.20;99.90
21167;DHT22;10741;52.272;9.580;2023-06-01T10:02:38;14.20;99.90
21167;DHT22;10741;52.272;9.580;2023-06-01T10:05:05;14.20;99.90
21167;DHT22;10741;52.272;9.580;2023-06-01T10:07:31;14.20;99.90
21167;DHT22;10741;52.272;9.580;2023-06-01T10:10:00;14.30;99.90
21167;DHT22;10741;52.272;9.580;2023-06-01T10:12:28;14.40;99.90
21167;DHT22;10741;52.272;9.580;2023-06-01T10:14:55;14.60;99.90
21167;DHT22;10741;52.272;9.580;2023-06-01T10:17:21;14.70;99.90
21167;DHT22;10741;52.272;9.580;2023-06-01T10:19:48;14.50;99.90
21167;DHT22;10741;52.272;9.580;2023-06-01T10:22:14;14.40;99.90
21167;DHT22;10741;52.272;9.580;2023-06-01T10:24:40;14.60;99.90
21167;DHT22;10741;52.272;9.580;2023-06-01T10:27:35;14.50;99.90
21167;DHT22;10741;52.272;9.580;2023-06-01T10:30:08;14.50;99.90
21167;DHT22;10741;52.272;9.580;2023-06-01T10:35:07;14.50;99.90
21167;DHT22;10741;52.272;9.580;2023-06-01T10:37:33;14.60;99.90
21167;DHT22;10741;52.272;9.580;2023-06-01T10:42:43;14.80;99.90
21167;DHT22;10741;52.272;9.580;2023-06-01T10:45:36;14.90;99.90
21167;DHT22;10741;52.272;9.580;2023-06-01T10:48:08;14.90;99.90
21167;DHT22;10741;52.272;9.580;2023-06-01T10:50:37;14.80;99.90
21167;DHT22;10741;52.272;9.580;2023-06-01T10:53:28;14.70;99.90
21167;DHT22;10741;52.272;9.580;2023-06-01T10:56:18;14.60;99.90
21167;DHT22;10741;52.272;9.580;2023-06-01T10:58:46;14.90;99.90
21167;DHT22;10741;52.272;9.580;2023-06-01T11:01:18;15.10;99.90
21167;DHT22;10741;52.272;9.580;2023-06-01T11:03:46;15.30;99.90
21167;DHT22;10741;52.272;9.580;2023-06-01T11:06:28;15.20;99.90
21167;DHT22;10741;52.272;9.580;2023-06-01T11:09:02;15.10;99.90
21167;DHT22;10741;52.272;9.580;2023-06-01T11:14:20;14.90;99.90
21167;DHT22;10741;52.272;9.580;2023-06-01T11:16:49;14.90;99.90
21167;DHT22;10741;52.272;9.580;2023-06-01T11:19:25;14.80;99.90
21167;DHT22;10741;52.272;9.580;2023-06-01T11:22:10;14.70;99.90
21167;DHT22;10741;52.272;9.580;2023-06-01T11:24:38;14.50;99.90
21167;DHT22;10741;52.272;9.580;2023-06-01T11:27:09;14.70;99.90
21167;DHT22;10741;52.272;9.580;2023-06-01T11:29:35;14.90;99.90
21167;DHT22;10741;52.272;9.580;2023-06-01T11:32:03;15.10;99.90
21167;DHT22;10741;52.272;9.580;2023-06-01T11:34:33;15.20;99.90
21167;DHT22;10741;52.272;9.580;2023-06-01T11:37:00;15.10;99.90
21167;DHT22;10741;52.272;9.580;2023-06-01T11:39:27;15.10;99.90
21167;DHT22;10741;52.272;9.580;2023-06-01T11:42:07;15.10;99.90
21167;DHT22;10741;52.272;9.580;2023-06-01T11:44:34;15.20;99.90
21167;DHT22;10741;52.272;9.580;2023-06-01T11:47:01;15.10;99.90
21167;DHT22;10741;52.272;9.580;2023-06-01T11:49:28;15.20;99.90
21167;DHT22;10741;52.272;9.580;2023-06-01T11:51:54;15.50;99.90
21167;DHT22;10741;52.272;9.580;2023-06-01T11:54:23;15.80;99.90
21167;DHT22;10741;52.272;9.580;2023-06-01T11:56:49;16.00;99.90
21167;DHT22;10741;52.272;9.580;2023-06-01T11:59:17;15.70;99.90
21167;DHT22;10741;52.272;9.580;2023-06-01T12:01:45;15.50;99.90
21167;DHT22;10741;52.272;9.580;2023-06-01T12:04:19;15.40;99.90
21167;DHT22;10741;52.272;9.580;2023-06-01T12:06:45;15.20;99.90
21167;DHT22;10741;52.272;9.580;2023-06-01T12:09:12;15.20;99.90
21167;DHT22;10741;52.272;9.580;2023-06-01T12:11:39;15.10;99.90
21167;DHT22;10741;52.272;9.580;2023-06-01T12:14:06;15.00;99.90
21167;DHT22;10741;52.272;9.580;2023-06-01T12:16:51;15.10;99.90
21167;DHT22;10741;52.272;9.580;2023-06-01T12:19:17;15.10;99.90
21167;DHT22;10741;52.272;9.580;2023-06-01T12:21:50;15.00;99.90
21167;DHT22;10741;52.272;9.580;2023-06-01T12:24:18;15.00;99.90
21167;DHT22;10741;52.272;9.580;2023-06-01T12:26:44;15.20;99.90
21167;DHT22;10741;52.272;9.580;2023-06-01T12:29:10;15.40;99.90
21167;DHT22;10741;52.272;9.580;2023-06-01T12:31:36;15.60;99.90
21167;DHT22;10741;52.272;9.580;2023-06-01T12:34:01;15.70;99.90
21167;DHT22;10741;52.272;9.580;2023-06-01T12:38:58;15.70;99.90
21167;DHT22;10741;52.272;9.580;2023-06-01T12:41:25;15.50;99.90
21167;DHT22;10741;52.272;9.580;2023-06-01T12:43:51;15.30;99.90
21167;DHT22;10741;52.272;9.580;2023-06-01T12:46:25;15.20;99.90
21167;DHT22;10741;52.272;9.580;2023-06-01T12:48:53;15.20;99.90
21167;DHT22;10741;52.272;9.580;2023-06-01T12:51:20;15.20;99.90
21167;DHT22;10741;52.272;9.580;2023-06-01T12:53:47;15.20;99.90
21167;DHT22;10741;52.272;9.580;2023-06-01T12:56:13;15.40;99.90
21167;DHT22;10741;52.272;9.580;2023-06-01T12:58:40;15.30;99.90
21167;DHT22;10741;52.272;9.580;2023-06-01T13:01:06;15.30;99.90
21167;DHT22;10741;52.272;9.580;2023-06-01T13:03:32;15.30;99.90
21167;DHT22;10741;52.272;9.580;2023-06-01T13:05:59;15.20;99.90
21167;DHT22;10741;52.272;9.580;2023-06-01T13:08:25;15.10;99.90
21167;DHT22;10741;52.272;9.580;2023-06-01T13:10:52;15.00;99.90
21167;DHT22;10741;52.272;9.580;2023-06-01T13:13:18;14.90;99.90
21167;DHT22;10741;52.272;9.580;2023-06-01T13:15:44;14.80;99.90
21167;DHT22;10741;52.272;9.580;2023-06-01T13:18:11;14.80;99.90
21167;DHT22;10741;52.272;9.580;2023-06-01T13:20:38;14.70;99.90
21167;DHT22;10741;52.272;9.580;2023-06-01T13:23:05;14.70;99.90
21167;DHT22;10741;52.272;9.580;2023-06-01T13:25:31;14.70;99.90
21167;DHT22;10741;52.272;9.580;2023-06-01T13:27:58;14.70;99.90
21167;DHT22;10741;52.272;9.580;2023-06-01T13:30:25;14.70;99.90
21167;DHT22;10741;52.272;9.580;2023-06-01T13:32:51;14.70;99.90
21167;DHT22;10741;52.272;9.580;2023-06-01T13:35:16;14.60;99.90
21167;DHT22;10741;52.272;9.580;2023-06-01T13:37:44;14.70;99.90
21167;DHT22;10741;52.272;9.580;2023-06-01T13:40:10;14.80;99.90
21167;DHT22;10741;52.272;9.580;2023-06-01T13:42:36;14.80;99.90
21167;DHT22;10741;52.272;9.580;2023-06-01T13:45:02;14.80;99.90
21167;DHT22;10741;52.272;9.580;2023-06-01T13:47:28;14.90;99.90
21167;DHT22;10741;52.272;9.580;2023-06-01T13:49:54;15.00;99.90
21167;DHT22;10741;52.272;9.580;2023-06-01T13:52:20;15.10;99.90
21167;DHT22;10741;52.272;9.580;2023-06-01T13:54:46;15.30;99.90
21167;DHT22;10741;52.272;9.580;2023-06-01T13:57:11;15.60;99.90
21167;DHT22;10741;52.272;9.580;2023-06-01T13:59:37;15.90;99.90
21167;DHT22;10741;52.272;9.580;2023-06-01T14:02:04;16.40;99.90
21167;DHT22;10741;52.272;9.580;2023-06-01T14:04:30;16.70;99.90
21167;DHT22;10741;52.272;9.580;2023-06-01T14:06:56;16.60;99.90
21167;DHT22;10741;52.272;9.580;2023-06-01T14:09:22;16.20;99.90
21167;DHT22;10741;52.272;9.580;2023-06-01T14:11:49;16.00;99.90
21167;DHT22;10741;52.272;9.580;2023-06-01T14:14:15;16.40;99.90
21167;DHT22;10741;52.272;9.580;2023-06-01T14:16:41;16.80;99.90
21167;DHT22;10741;52.272;9.580;2023-06-01T14:19:07;16.80;99.90
21167;DHT22;10741;52.272;9.580;2023-06-01T14:21:32;16.80;99.90
21167;DHT22;10741;52.272;9.580;2023-06-01T14:24:00;17.00;99.90
21167;DHT22;10741;52.272;9.580;2023-06-01T14:26:26;16.80;99.90
21167;DHT22;10741;52.272;9.580;2023-06-01T14:28:53;16.90;99.90
21167;DHT22;10741;52.272;9.580;2023-06-01T14:31:18;16.80;99.90
21167;DHT22;10741;52.272;9.580;2023-06-01T14:33:45;16.70;99.90
21167;DHT22;10741;52.272;9.580;2023-06-01T14:36:11;16.50;99.90
21167;DHT22;10741;52.272;9.580;2023-06-01T14:38:37;16.40;99.90
21167;DHT22;10741;52.272;9.580;2023-06-01T14:41:03;16.50;99.90
21167;DHT22;10741;52.272;9.580;2023-06-01T14:43:28;16.60;99.90
21167;DHT22;10741;52.272;9.580;2023-06-01T14:45:56;16.80;99.90
21167;DHT22;10741;52.272;9.580;2023-06-01T14:48:22;16.70;99.90
21167;DHT22;10741;52.272;9.580;2023-06-01T14:50:48;16.60;99.90
21167;DHT22;10741;52.272;9.580;2023-06-01T14:53:14;16.40;99.90
21167;DHT22;10741;52.272;9.580;2023-06-01T14:55:43;16.30;99.90
21167;DHT22;10741;52.272;9.580;2023-06-01T14:58:09;16.40;99.90
21167;DHT22;10741;52.272;9.580;2023-06-01T15:00:35;16.50;99.90
21167;DHT22;10741;52.272;9.580;2023-06-01T15:03:05;16.50;99.90
21167;DHT22;10741;52.272;9.580;2023-06-01T15:05:32;16.50;99.90
21167;DHT22;10741;52.272;9.580;2023-06-01T15:07:59;16.40;99.90
21167;DHT22;10741;52.272;9.580;2023-06-01T15:10:25;16.30;99.90
21167;DHT22;10741;52.272;9.580;2023-06-01T15:12:51;16.40;99.90
21167;DHT22;10741;52.272;9.580;2023-06-01T15:15:17;16.30;99.90
21167;DHT22;10741;52.272;9.580;2023-06-01T15:17:43;16.40;99.90
21167;DHT22;10741;52.272;9.580;2023-06-01T15:20:09;16.40;99.90
21167;DHT22;10741;52.272;9.580;2023-06-01T15:22:36;16.30;99.90
21167;DHT22;10741;52.272;9.580;2023-06-01T15:25:02;16.40;99.90
21167;DHT22;10741;52.272;9.580;2023-06-01T15:27:28;16.40;99.90
21167;DHT22;10741;52.272;9.580;2023-06-01T15:29:54;16.30;99.90
21167;DHT22;10741;52.272;9.580;2023-06-01T15:32:19;16.30;99.90
21167;DHT22;10741;52.272;9.580;2023-06-01T15:34:45;16.20;99.90
21167;DHT22;10741;52.272;9.580;2023-06-01T15:37:12;16.20;99.90
21167;DHT22;10741;52.272;9.580;2023-06-01T15:39:38;16.40;99.90
21167;DHT22;10741;52.272;9.580;2023-06-01T15:42:05;16.40;99.90
21167;DHT22;10741;52.272;9.580;2023-06-01T15:44:31;16.40;99.90
21167;DHT22;10741;52.272;9.580;2023-06-01T15:46:56;16.40;99.90
21167;DHT22;10741;52.272;9.580;2023-06-01T15:49:22;16.40;99.90
21167;DHT22;10741;52.272;9.580;2023-06-01T15:51:48;16.20;99.90
21167;DHT22;10741;52.272;9.580;2023-06-01T15:54:13;16.30;99.90
21167;DHT22;10741;52.272;9.580;2023-06-01T15:56:39;16.40;99.90